Aérodrome :
LOGIN :

S'inscrire | Disclaimer

   EN    FR    IT 

 










Légende :    VFR   VFR Marginal   IFR   IFR Intensif   IFR Très Intensif
Visi : 
Plafond : 
>= 8 km
>= 3000ft
5 à 8 km
1000 à 3000 ft
1500m à 5 km
500 à 1000 ft
800 à 1500m
200 à 500 ft
< 800m
< 200 ft
Symboles :   Orages  Brouillard  Fortes neiges  Fortes précipitations  Vent > 20 kt
SIGMETs :   Divers  Orages  Givrage  Turbulence  Onde Orograph.  Cendres Volcan.






- Altitude de l'aérodrome : 17 ft
- Code IATA : MPL


LFMT - Montpellier Méditerranée

DERNIER METAR :
  • 280030Z AUTO 00000KT CAVOK 11/05 Q1018 NOSIG

METARs EXPIRÉS :
  • 280000Z AUTO 33004KT CAVOK 11/05 Q1017 NOSIG
  • 272330Z AUTO 35007KT CAVOK 10/05 Q1017 NOSIG
  • 272300Z AUTO 05006KT CAVOK 09/05 Q1016 NOSIG
  • 272230Z AUTO 07004KT 020V090 CAVOK 11/05 Q1016 NOSIG
  • 272200Z AUTO 31013KT CAVOK 14/04 Q1015 NOSIG

TAF TAF LFMT
Valide du 27 à 21h jusqu'au 28 à 21h UTC


272000Z 2721/2821 VRB05KT 9999 BKN040
BECMG 2801/2804 NSC
BECMG 2812/2815 18010KT
BECMG 2820/2821 VRB03KT BKN010
ATIS : +33 4 67 13 11 70



MET'MAP, la Météo Aéronautique d'un coup d'oeil ! - Copyright ORBIFLY Décembre 2007 - Disclaimer

ORBIFLY MET'MAP TEAM :

Programmation & Développement : Alexandra Zaïnal
Sur une idée originale de : Baudouin d'Aumeries
Assistance à la programmation : Marc-Olivier Méhu
Soutien technique & logistique : Manuel Goepfert

Contact : metmap@orbifly.com




SOURCES & CREDITS :

   NOAA